CheckWX is a tool to help pilots better visualize weather data.  It is not intended as a substitute for an official pre-flight weather briefing.

07:01:16 UTC

KAZO TAF
Kalamazoo / Battle Creek International Airport
Kalamazoo, Michigan, USA
KAZO 210532Z 2106/2206 00000KT P6SM SKC FM210900 14004KT 3SM BR SKC FM211100 16003KT 2SM BR SKC FM211400 22009KT P6SM SCT120 SCT250 FM211900 22012G24KT P6SM VCSH BKN080 FM220300 20008KT P6SM SCT050 BKN120

Sep-21@
06:00 UTC

Sep-21 @ 06:00 UTC

Sep-21@
09:00 UTC

Sep-21 @ 09:00 UTC

KAZO 210532Z 2106/2206 00000KT P6SM SKC
Cloud Levels
  • Clear skies

Sep-21@
09:00 UTC

Sep-21 @ 09:00 UTC

Sep-21@
11:00 UTC

Sep-21 @ 11:00 UTC

FM210900 14004KT 3SM BR SKC

From

From Standard forecast or significant change

Wind
  • 140° at 4 KTS
Conditions
Mist
Cloud Levels
  • Clear skies

Sep-21@
11:00 UTC

Sep-21 @ 11:00 UTC

Sep-21@
14:00 UTC

Sep-21 @ 14:00 UTC

FM211100 16003KT 2SM BR SKC

From

From Standard forecast or significant change

Wind
  • 160° at 3 KTS
Conditions
Mist
Cloud Levels
  • Clear skies

Sep-21@
14:00 UTC

Sep-21 @ 14:00 UTC

Sep-21@
19:00 UTC

Sep-21 @ 19:00 UTC

FM211400 22009KT P6SM SCT120 SCT250

From

From Standard forecast or significant change

Wind
  • 220° at 9 KTS
Cloud Levels
  • Scattered at 12,000' AGL
  • Scattered at 25,000' AGL

Sep-21@
19:00 UTC

Sep-21 @ 19:00 UTC

Sep-22@
03:00 UTC

Sep-22 @ 03:00 UTC

FM211900 22012G24KT P6SM VCSH BKN080

From

From Standard forecast or significant change

Wind
  • 220° at 12 KTS
  • {Gusting to 24 KTS
Cloud Levels
  • Broken at 8,000' AGL

Sep-22@
03:00 UTC

Sep-22 @ 03:00 UTC

Sep-22@
06:00 UTC

Sep-22 @ 06:00 UTC

FM220300 20008KT P6SM SCT050 BKN120

From

From Standard forecast or significant change

Wind
  • 200° at 8 KTS
Cloud Levels
  • Scattered at 5,000' AGL
  • Broken at 12,000' AGL